Dane County Regional Truax Field
KMSN : rendu visible

Aérodrome :











RETROUVEZ-NOUS SUR...

 
LOGIN :

S'inscrire | Disclaimer

   EN    FR    IT 

 









Légende :    VFR   VFR Marginal   IFR   IFR Intensif   IFR Très Intensif
Visi : 
Plafond : 
>= 8 km
>= 3000ft
5 à 8 km
1000 à 3000 ft
1500m à 5 km
500 à 1000 ft
800 à 1500m
200 à 500 ft
< 800m
< 200 ft
Symboles :   Orages  Brouillard  Fortes neiges  Fortes précipitations  Vent > 20 kt






- Altitude de l'aérodrome : 887 ft
- Code IATA : MSN


KMSN - Dane County Regional Truax Field

DERNIER METAR :
  • 202253Z 28005KT 10SM CLR M08/M21 A3065 RMK AO2 SLP401 T10831206 $

METARs EXPIRÉS :
  • 202153Z 27006KT 10SM CLR M08/M21 A3066 RMK AO2 SLP404 T10831211 $
  • 202053Z 29006KT 10SM CLR M08/M22 A3065 RMK AO2 SLP402 T10831217 56023

TAF KMSN
Valide du 21 à 00h jusqu'au 22 à 00h UTC


202330Z 2100/2124 27003KT P6SM SKC
FM211300 22009KT P6SM SKC
FM211700 22012G20KT P6SM SKC
FM211900 22013G23KT P6SM SKC



MET'MAP, la Météo Aéronautique d'un coup d'oeil ! - Copyright ORBIFLY Décembre 2007 - Disclaimer

ORBIFLY MET'MAP TEAM :

Programmation & Développement : Alexandra Zaïnal
Sur une idée originale de : Baudouin d'Aumeries
Assistance à la programmation : Marc-Olivier Méhu
Soutien technique & logistique : Manuel Goepfert

Contact : metmap@orbifly.com




SOURCES & CREDITS :

   NOAA       Earth
Advisory